sensor_id;sensor_type;location;lat;lon;timestamp;pressure;altitude;pressure_sealevel;temperature;humidity
38191;BME280;25191;47.510;19.124;2023-03-30T00:09:10;100820.75;;;21.53;44.89
38191;BME280;25191;47.510;19.124;2023-03-30T00:19:11;100814.66;;;21.52;44.96
38191;BME280;25191;47.510;19.124;2023-03-30T00:29:11;100811.41;;;21.49;44.70
38191;BME280;25191;47.510;19.124;2023-03-30T00:39:12;100801.00;;;21.47;44.72
38191;BME280;25191;47.510;19.124;2023-03-30T00:49:12;100789.59;;;21.47;44.64
38191;BME280;25191;47.510;19.124;2023-03-30T00:59:14;100776.66;;;21.43;44.77
38191;BME280;25191;47.510;19.124;2023-03-30T01:09:14;100766.13;;;21.43;44.90
38191;BME280;25191;47.510;19.124;2023-03-30T01:40:43;100722.63;;;21.38;44.77
38191;BME280;25191;47.510;19.124;2023-03-30T01:51:09;100719.03;;;21.39;44.38
38191;BME280;25191;47.510;19.124;2023-03-30T02:01:11;100727.88;;;21.38;44.28
38191;BME280;25191;47.510;19.124;2023-03-30T02:11:16;100735.03;;;21.36;44.78
38191;BME280;25191;47.510;19.124;2023-03-30T02:21:17;100716.94;;;21.31;44.65
38191;BME280;25191;47.510;19.124;2023-03-30T02:31:17;100697.66;;;21.31;44.49
38191;BME280;25191;47.510;19.124;2023-03-30T02:41:48;100711.66;;;21.31;44.41
38191;BME280;25191;47.510;19.124;2023-03-30T02:51:51;100714.31;;;21.31;44.41
38191;BME280;25191;47.510;19.124;2023-03-30T03:02:04;100698.63;;;21.30;44.44
38191;BME280;25191;47.510;19.124;2023-03-30T03:12:07;100712.97;;;21.25;44.77
38191;BME280;25191;47.510;19.124;2023-03-30T03:22:07;100707.81;;;21.24;44.53
38191;BME280;25191;47.510;19.124;2023-03-30T03:32:10;100709.59;;;21.23;44.25
38191;BME280;25191;47.510;19.124;2023-03-30T03:42:10;100727.41;;;21.20;44.68
38191;BME280;25191;47.510;19.124;2023-03-30T03:52:12;100716.69;;;21.23;44.51
38191;BME280;25191;47.510;19.124;2023-03-30T04:02:12;100705.28;;;21.22;43.90
38191;BME280;25191;47.510;19.124;2023-03-30T04:12:13;100693.91;;;21.22;44.66
38191;BME280;25191;47.510;19.124;2023-03-30T04:22:13;100683.09;;;21.38;45.95
38191;BME280;25191;47.510;19.124;2023-03-30T04:32:14;100680.50;;;21.49;46.51
38191;BME280;25191;47.510;19.124;2023-03-30T04:42:20;100691.22;;;21.59;46.02
38191;BME280;25191;47.510;19.124;2023-03-30T04:52:20;100678.56;;;21.64;45.86
38191;BME280;25191;47.510;19.124;2023-03-30T05:02:21;100663.94;;;21.60;44.26
38191;BME280;25191;47.510;19.124;2023-03-30T05:12:21;100668.25;;;21.61;42.58
38191;BME280;25191;47.510;19.124;2023-03-30T05:22:22;100682.06;;;21.52;41.22
38191;BME280;25191;47.510;19.124;2023-03-30T05:32:31;100672.06;;;21.57;42.11
38191;BME280;25191;47.510;19.124;2023-03-30T05:42:32;100654.34;;;21.59;42.25
38191;BME280;25191;47.510;19.124;2023-03-30T05:52:32;100657.84;;;21.59;41.66
38191;BME280;25191;47.510;19.124;2023-03-30T06:02:34;100663.47;;;21.66;43.00
38191;BME280;25191;47.510;19.124;2023-03-30T06:12:35;100661.31;;;21.71;43.08
38191;BME280;25191;47.510;19.124;2023-03-30T06:22:35;100645.28;;;21.74;43.35
38191;BME280;25191;47.510;19.124;2023-03-30T06:32:36;100637.03;;;21.79;43.68
38191;BME280;25191;47.510;19.124;2023-03-30T06:42:39;100633.06;;;21.85;43.75
38191;BME280;25191;47.510;19.124;2023-03-30T06:52:40;100627.56;;;21.88;43.80
38191;BME280;25191;47.510;19.124;2023-03-30T07:02:41;100630.00;;;21.91;43.61
38191;BME280;25191;47.510;19.124;2023-03-30T07:12:41;100636.81;;;21.94;43.60
38191;BME280;25191;47.510;19.124;2023-03-30T07:22:42;100631.56;;;21.94;43.87
38191;BME280;25191;47.510;19.124;2023-03-30T07:32:46;100631.31;;;21.97;43.82
38191;BME280;25191;47.510;19.124;2023-03-30T07:42:46;100635.50;;;21.99;44.08
38191;BME280;25191;47.510;19.124;2023-03-30T07:52:49;100630.13;;;22.01;43.60
38191;BME280;25191;47.510;19.124;2023-03-30T08:02:50;100637.66;;;22.05;43.67
38191;BME280;25191;47.510;19.124;2023-03-30T08:12:50;100624.25;;;22.09;43.48
38191;BME280;25191;47.510;19.124;2023-03-30T08:22:51;100625.81;;;22.11;43.90
38191;BME280;25191;47.510;19.124;2023-03-30T08:32:51;100622.09;;;22.14;43.55
38191;BME280;25191;47.510;19.124;2023-03-30T08:53:13;100626.41;;;22.15;43.50
38191;BME280;25191;47.510;19.124;2023-03-30T09:03:39;100612.25;;;22.16;43.57
38191;BME280;25191;47.510;19.124;2023-03-30T09:13:38;100585.16;;;22.14;43.81
38191;BME280;25191;47.510;19.124;2023-03-30T09:23:43;100594.97;;;22.12;43.62
38191;BME280;25191;47.510;19.124;2023-03-30T09:43:46;100553.66;;;22.12;43.39
38191;BME280;25191;47.510;19.124;2023-03-30T09:53:59;100551.00;;;22.12;42.88
38191;BME280;25191;47.510;19.124;2023-03-30T10:04:07;100552.69;;;22.13;43.31
38191;BME280;25191;47.510;19.124;2023-03-30T10:24:28;100518.00;;;22.18;43.77
38191;BME280;25191;47.510;19.124;2023-03-30T10:34:40;100500.63;;;22.15;43.57
38191;BME280;25191;47.510;19.124;2023-03-30T10:44:46;100487.44;;;22.15;43.59
38191;BME280;25191;47.510;19.124;2023-03-30T10:54:56;100467.34;;;22.14;43.75
38191;BME280;25191;47.510;19.124;2023-03-30T11:05:12;100453.06;;;22.17;43.45
38191;BME280;25191;47.510;19.124;2023-03-30T11:15:18;100462.41;;;22.21;43.74
38191;BME280;25191;47.510;19.124;2023-03-30T11:25:24;100442.38;;;22.18;43.73
38191;BME280;25191;47.510;19.124;2023-03-30T11:35:36;100448.25;;;22.22;43.40
38191;BME280;25191;47.510;19.124;2023-03-30T11:55:53;100403.41;;;22.22;43.71
38191;BME280;25191;47.510;19.124;2023-03-30T12:16:38;100376.66;;;22.27;43.68
38191;BME280;25191;47.510;19.124;2023-03-30T12:26:40;100344.59;;;22.31;43.44
38191;BME280;25191;47.510;19.124;2023-03-30T12:36:48;100336.44;;;22.34;43.87
38191;BME280;25191;47.510;19.124;2023-03-30T12:47:03;100318.94;;;22.33;43.81
38191;BME280;25191;47.510;19.124;2023-03-30T13:07:44;100279.50;;;22.32;43.62
38191;BME280;25191;47.510;19.124;2023-03-30T13:18:03;100276.88;;;22.32;43.85
38191;BME280;25191;47.510;19.124;2023-03-30T13:39:05;100268.06;;;22.21;41.34
38191;BME280;25191;47.510;19.124;2023-03-30T13:59:18;100248.84;;;22.10;40.00
38191;BME280;25191;47.510;19.124;2023-03-30T14:09:25;100214.09;;;22.04;39.26
38191;BME280;25191;47.510;19.124;2023-03-30T14:19:37;100197.13;;;21.97;38.68
38191;BME280;25191;47.510;19.124;2023-03-30T14:29:45;100180.97;;;21.90;39.21
38191;BME280;25191;47.510;19.124;2023-03-30T14:39:50;100156.81;;;21.85;38.52
38191;BME280;25191;47.510;19.124;2023-03-30T14:50:04;100129.59;;;21.85;38.68
38191;BME280;25191;47.510;19.124;2023-03-30T15:00:19;100112.72;;;21.87;38.09
38191;BME280;25191;47.510;19.124;2023-03-30T15:10:34;100086.84;;;21.81;38.55
38191;BME280;25191;47.510;19.124;2023-03-30T15:20:35;100083.19;;;21.72;37.59
38191;BME280;25191;47.510;19.124;2023-03-30T15:30:41;100076.25;;;21.71;37.70
38191;BME280;25191;47.510;19.124;2023-03-30T15:40:46;100100.63;;;21.64;37.93
38191;BME280;25191;47.510;19.124;2023-03-30T15:50:53;100112.72;;;21.66;39.71
38191;BME280;25191;47.510;19.124;2023-03-30T16:00:56;100130.47;;;21.64;38.76
38191;BME280;25191;47.510;19.124;2023-03-30T16:11:01;100099.22;;;21.59;39.40
38191;BME280;25191;47.510;19.124;2023-03-30T16:21:03;100096.22;;;21.64;39.73
38191;BME280;25191;47.510;19.124;2023-03-30T16:31:13;100078.78;;;21.73;42.25
38191;BME280;25191;47.510;19.124;2023-03-30T16:41:21;100048.69;;;21.75;42.84
38191;BME280;25191;47.510;19.124;2023-03-30T16:51:22;100076.59;;;21.78;43.59
38191;BME280;25191;47.510;19.124;2023-03-30T17:01:28;100082.16;;;21.85;45.17
38191;BME280;25191;47.510;19.124;2023-03-30T17:11:28;100073.19;;;21.87;45.39
38191;BME280;25191;47.510;19.124;2023-03-30T17:21:29;100059.16;;;21.87;46.38
38191;BME280;25191;47.510;19.124;2023-03-30T17:31:36;100071.50;;;21.86;46.42
38191;BME280;25191;47.510;19.124;2023-03-30T17:41:38;100045.72;;;21.90;46.20
38191;BME280;25191;47.510;19.124;2023-03-30T17:51:42;100037.94;;;21.88;46.44
38191;BME280;25191;47.510;19.124;2023-03-30T18:01:43;100033.50;;;21.89;46.50
38191;BME280;25191;47.510;19.124;2023-03-30T18:11:43;100021.03;;;21.91;47.53
38191;BME280;25191;47.510;19.124;2023-03-30T18:21:44;100030.59;;;21.92;47.82
38191;BME280;25191;47.510;19.124;2023-03-30T18:31:48;100094.94;;;21.89;47.80
38191;BME280;25191;47.510;19.124;2023-03-30T18:41:52;100131.16;;;21.87;48.11
38191;BME280;25191;47.510;19.124;2023-03-30T18:52:02;100118.69;;;21.89;47.87
38191;BME280;25191;47.510;19.124;2023-03-30T19:02:04;100088.53;;;21.82;48.01
38191;BME280;25191;47.510;19.124;2023-03-30T19:12:05;100077.59;;;21.87;47.33
38191;BME280;25191;47.510;19.124;2023-03-30T19:22:06;99982.84;;;21.85;46.68
38191;BME280;25191;47.510;19.124;2023-03-30T19:32:07;100036.53;;;21.84;46.72
38191;BME280;25191;47.510;19.124;2023-03-30T19:42:11;100028.47;;;21.86;47.15
38191;BME280;25191;47.510;19.124;2023-03-30T19:52:11;100019.75;;;21.85;47.44
38191;BME280;25191;47.510;19.124;2023-03-30T20:02:13;100021.53;;;21.85;47.62
38191;BME280;25191;47.510;19.124;2023-03-30T20:12:15;100014.47;;;21.85;47.87
38191;BME280;25191;47.510;19.124;2023-03-30T20:22:15;100020.56;;;21.86;48.08
38191;BME280;25191;47.510;19.124;2023-03-30T20:32:16;99999.50;;;21.86;48.32
38191;BME280;25191;47.510;19.124;2023-03-30T20:42:17;99990.63;;;21.87;48.79
38191;BME280;25191;47.510;19.124;2023-03-30T20:52:26;100008.34;;;21.85;48.39
38191;BME280;25191;47.510;19.124;2023-03-30T21:02:26;100009.22;;;21.85;48.73
38191;BME280;25191;47.510;19.124;2023-03-30T21:12:28;99977.72;;;21.84;49.05
38191;BME280;25191;47.510;19.124;2023-03-30T21:22:28;99955.94;;;21.82;48.74
38191;BME280;25191;47.510;19.124;2023-03-30T21:32:29;99932.47;;;21.79;48.86
38191;BME280;25191;47.510;19.124;2023-03-30T21:42:32;99917.50;;;21.79;48.82
38191;BME280;25191;47.510;19.124;2023-03-30T21:52:34;99948.28;;;21.79;48.98
38191;BME280;25191;47.510;19.124;2023-03-30T22:02:37;99972.00;;;21.79;49.00
38191;BME280;25191;47.510;19.124;2023-03-30T22:12:42;99971.31;;;21.77;48.99
38191;BME280;25191;47.510;19.124;2023-03-30T22:22:43;99974.91;;;21.75;49.04
38191;BME280;25191;47.510;19.124;2023-03-30T22:32:44;99972.28;;;21.75;49.27
38191;BME280;25191;47.510;19.124;2023-03-30T22:42:44;99973.25;;;21.74;49.62
38191;BME280;25191;47.510;19.124;2023-03-30T22:52:45;99964.75;;;21.71;49.80
38191;BME280;25191;47.510;19.124;2023-03-30T23:02:51;99962.25;;;21.69;49.79
38191;BME280;25191;47.510;19.124;2023-03-30T23:12:53;99948.38;;;21.67;49.83
38191;BME280;25191;47.510;19.124;2023-03-30T23:22:53;99951.16;;;21.66;49.65
38191;BME280;25191;47.510;19.124;2023-03-30T23:32:53;99957.97;;;21.68;49.51
38191;BME280;25191;47.510;19.124;2023-03-30T23:42:55;99956.28;;;21.67;49.60
38191;BME280;25191;47.510;19.124;2023-03-30T23:52:57;99943.25;;;21.66;49.84
